Time;durP1;ratioP1;P1;durP2;ratioP2;P2;SDS_P1;SDS_P2;PMS_P1;PMS_P2;Temp;Humidity;BMP_temperature;BMP_pressure;BME280_temperature;BME280_humidity;BME280_pressure;Samples;Min_cycle;Max_cycle;Signal;HPM_P1;HPM_P2
2024/02/18 00:01:32;;;;;;;;;0.00;0.00;;;;;13.94;100.00;103086.00;5078178;27;46319;-79
2024/02/18 00:03:57;;;;;;;;;0.00;0.00;;;;;13.92;100.00;103083.38;5078121;28;45287;-79
2024/02/18 00:06:22;;;;;;;;;0.00;0.00;;;;;13.89;100.00;103085.13;5078334;27;45346;-79
2024/02/18 00:08:48;;;;;;;;;0.00;0.00;;;;;13.87;100.00;103084.28;5078064;27;69235;-81
2024/02/18 00:11:15;;;;;;;;;0.00;0.00;;;;;13.85;100.00;103086.03;5078213;27;45586;-80
2024/02/18 00:13:40;;;;;;;;;0.00;0.00;;;;;13.83;100.00;103082.56;5078206;27;45328;-79
2024/02/18 00:16:05;;;;;;;;;0.00;0.00;;;;;13.84;100.00;103079.94;5077950;27;54138;-79
2024/02/18 00:18:31;;;;;;;;;0.00;0.00;;;;;13.81;100.00;103076.47;5077224;27;54051;-80
2024/02/18 00:20:56;;;;;;;;;0.00;0.00;;;;;13.78;100.00;103071.25;5075856;27;71069;-80
2024/02/18 00:23:21;;;;;;;;;0.00;0.00;;;;;13.75;100.00;103065.16;5076759;27;73113;-80
2024/02/18 00:25:47;;;;;;;;;0.00;0.00;;;;;13.71;100.00;103071.28;5058950;28;48544;-80
2024/02/18 00:28:12;;;;;;;;;0.00;0.00;;;;;13.71;100.00;103066.03;5057924;28;45432;-80
2024/02/18 00:30:38;;;;;;;;;0.00;0.00;;;;;13.70;100.00;103066.91;5057712;28;46475;-81
2024/02/18 00:33:03;;;;;;;;;0.00;0.00;;;;;13.71;100.00;103066.03;5056555;28;73029;-80
2024/02/18 00:35:28;;;;;;;;;0.00;0.00;;;;;13.72;100.00;103067.81;5057362;28;45315;-80
2024/02/18 00:37:54;;;;;;;;;0.00;0.00;;;;;13.73;100.00;103066.03;5056931;28;70506;-80
2024/02/18 00:40:19;;;;;;;;;0.00;0.00;;;;;13.73;100.00;103072.16;5057340;28;46403;-80
2024/02/18 00:42:45;;;;;;;;;0.00;0.00;;;;;13.70;100.00;103064.28;5039248;28;50233;-80
2024/02/18 00:45:12;;;;;;;;;0.00;0.00;;;;;13.71;100.00;103075.66;5057821;28;45426;-81
2024/02/18 00:47:38;;;;;;;;;0.00;0.00;;;;;13.70;100.00;103076.50;5057748;28;45341;-80
2024/02/18 00:50:03;;;;;;;;;0.00;0.00;;;;;13.69;100.00;103085.25;5056001;28;74690;-79
2024/02/18 00:52:28;;;;;;;;;0.00;0.00;;;;;13.68;100.00;103089.59;5057164;28;45499;-79
2024/02/18 00:54:54;;;;;;;;;0.00;0.00;;;;;13.67;100.00;103085.25;5056712;28;64608;-79
2024/02/18 00:57:19;;;;;;;;;0.00;0.00;;;;;13.64;100.00;103073.94;5057581;28;45372;-79
2024/02/18 00:59:44;;;;;;;;;0.00;0.00;;;;;13.61;100.00;103068.72;5057230;28;46629;-80
2024/02/18 01:02:10;;;;;;;;;0.00;0.00;;;;;13.59;100.00;103078.31;5056126;28;72852;-80
2024/02/18 01:04:35;;;;;;;;;0.00;0.00;;;;;13.59;100.00;103080.94;5056990;28;45372;-79
2024/02/18 01:07:00;;;;;;;;;0.00;0.00;;;;;13.57;100.00;103065.22;5056298;28;70128;-79
2024/02/18 01:09:26;;;;;;;;;0.00;0.00;;;;;13.56;100.00;103063.50;5055700;28;75539;-79
2024/02/18 01:11:51;;;;;;;;;0.00;0.00;;;;;13.52;100.00;103054.81;5056856;28;45464;-80
2024/02/18 01:14:16;;;;;;;;;0.00;0.00;;;;;13.51;100.00;103080.97;5056893;28;45391;-80
2024/02/18 01:16:42;;;;;;;;;0.00;0.00;;;;;13.48;100.00;103074.00;5056017;28;69191;-80
2024/02/18 01:19:07;;;;;;;;;0.00;0.00;;;;;13.45;100.00;103076.63;5056567;28;45365;-80
2024/02/18 01:21:32;;;;;;;;;0.00;0.00;;;;;13.42;100.00;103081.88;5037794;28;71913;-79
2024/02/18 01:23:58;;;;;;;;;0.00;0.00;;;;;13.40;100.00;103074.91;5066512;27;45385;-79
2024/02/18 01:26:23;;;;;;;;;0.00;0.00;;;;;13.40;100.00;103069.69;5076270;27;70199;-79
2024/02/18 01:28:49;;;;;;;;;0.00;0.00;;;;;13.39;100.00;103063.59;5076985;27;46067;-79
2024/02/18 01:31:15;;;;;;;;;0.00;0.00;;;;;13.38;100.00;103059.22;5076926;27;45347;-79
2024/02/18 01:33:43;;;;;;;;;0.00;0.00;;;;;13.38;100.00;103064.44;5075615;27;69198;-78
2024/02/18 01:36:08;;;;;;;;;0.00;0.00;;;;;13.38;100.00;103060.97;5077040;28;45289;-79
2024/02/18 01:38:34;;;;;;;;;0.00;0.00;;;;;13.33;100.00;103059.25;5076386;27;60418;-79
2024/02/18 01:40:59;;;;;;;;;0.00;0.00;;;;;13.35;100.00;103064.44;5076728;27;45320;-79
2024/02/18 01:43:26;;;;;;;;;0.00;0.00;;;;;13.35;100.00;103073.19;5075920;28;68876;-78
2024/02/18 01:45:51;;;;;;;;;0.00;0.00;;;;;13.33;100.00;103059.25;5076204;27;45408;-79
2024/02/18 01:48:17;;;;;;;;;0.00;0.00;;;;;13.33;100.00;103060.97;5075294;28;75630;-78
2024/02/18 01:50:43;;;;;;;;;0.00;0.00;;;;;13.31;100.00;103055.72;5076776;28;45438;-79
2024/02/18 01:53:09;;;;;;;;;0.00;0.00;;;;;13.31;100.00;103054.88;5076841;28;45311;-79
2024/02/18 01:55:34;;;;;;;;;0.00;0.00;;;;;13.32;100.00;103049.63;5076931;28;45403;-79
2024/02/18 01:58:01;;;;;;;;;0.00;0.00;;;;;13.32;100.00;103047.03;5074599;28;75734;-79
2024/02/18 02:00:26;;;;;;;;;0.00;0.00;;;;;13.29;100.00;103038.28;5075416;28;45442;-79
2024/02/18 02:02:52;;;;;;;;;0.00;0.00;;;;;13.29;100.00;103031.28;5073941;28;66339;-79
2024/02/18 02:05:21;;;;;;;;;0.00;0.00;;;;;13.29;100.00;103038.28;5074685;28;70481;-79
2024/02/18 02:07:51;;;;;;;;;0.00;0.00;;;;;13.31;100.00;103040.03;5076568;28;46367;-79
2024/02/18 02:10:17;;;;;;;;;0.00;0.00;;;;;13.32;100.00;103038.31;5076629;27;45391;-79
2024/02/18 02:12:43;;;;;;;;;0.00;0.00;;;;;13.32;100.00;103040.94;5075217;28;45324;-79
2024/02/18 02:15:10;;;;;;;;;0.00;0.00;;;;;13.29;100.00;103035.66;5075357;28;45449;-79
2024/02/18 02:17:37;;;;;;;;;0.00;0.00;;;;;13.29;100.00;103038.28;5075935;27;46408;-79
2024/02/18 02:20:03;;;;;;;;;0.00;0.00;;;;;13.28;100.00;103034.81;5076510;27;45509;-79
2024/02/18 02:22:28;;;;;;;;;0.00;0.00;;;;;13.28;100.00;103040.03;5076457;27;45358;-79
2024/02/18 02:24:53;;;;;;;;;0.00;0.00;;;;;13.26;100.00;103031.34;5074177;28;61325;-79
2024/02/18 02:27:24;;;;;;;;;0.00;0.00;;;;;13.25;100.00;103029.56;5075486;27;61992;-79
2024/02/18 02:29:50;;;;;;;;;0.00;0.00;;;;;13.25;100.00;103028.72;5074959;28;45457;-79
2024/02/18 02:32:15;;;;;;;;;0.00;0.00;;;;;13.18;100.00;103030.47;5073764;28;68121;-79
2024/02/18 02:34:40;;;;;;;;;0.00;0.00;;;;;13.20;100.00;103017.38;5075238;27;69432;-78
2024/02/18 02:37:06;;;;;;;;;0.00;0.00;;;;;13.17;100.00;103021.75;5075117;27;73606;-79
2024/02/18 02:39:32;;;;;;;;;0.00;0.00;;;;;13.15;100.00;103018.28;5076111;27;45438;-79
2024/02/18 02:41:57;;;;;;;;;0.00;0.00;;;;;13.15;100.00;103012.19;5075364;27;67870;-79
2024/02/18 02:44:22;;;;;;;;;1.00;1.00;;;;;13.13;100.00;103019.16;5075166;27;65458;-79
2024/02/18 02:46:48;;;;;;;;;0.00;0.00;;;;;13.10;100.00;103006.97;5074484;27;74958;-79
2024/02/18 02:49:14;;;;;;;;;0.00;0.00;;;;;13.13;100.00;103012.19;5075871;27;45329;-79
2024/02/18 02:51:41;;;;;;;;;0.00;0.00;;;;;13.14;100.00;103008.69;5075933;28;45389;-79
2024/02/18 02:54:07;;;;;;;;;0.00;0.00;;;;;13.14;100.00;103005.22;5076012;28;45256;-78
2024/02/18 02:56:32;;;;;;;;;0.00;0.00;;;;;13.14;100.00;102999.97;5075083;28;71387;-79
2024/02/18 02:58:57;;;;;;;;;0.00;0.00;;;;;13.14;100.00;102989.53;5079169;28;51214;-79
2024/02/18 03:01:23;;;;;;;;;0.00;0.00;;;;;13.10;100.00;102975.59;5078332;28;69085;-79
2024/02/18 03:03:48;;;;;;;;;0.00;0.00;;;;;13.15;100.00;102980.81;5079420;28;45366;-79
2024/02/18 03:06:13;;;;;;;;;0.00;0.00;;;;;13.16;100.00;102966.84;5078785;27;63034;-79
2024/02/18 03:08:42;;;;;;;;;0.00;0.00;;;;;13.14;100.00;102964.22;5078358;28;73064;-79
2024/02/18 03:11:09;;;;;;;;;0.00;0.00;;;;;13.09;100.00;102958.19;5078341;28;45373;-79
2024/02/18 03:13:34;;;;;;;;;0.00;0.00;;;;;13.07;100.00;102961.66;5079204;28;45280;-79
2024/02/18 03:16:00;;;;;;;;;0.00;0.00;;;;;13.06;100.00;102952.09;5078760;28;45350;-79
2024/02/18 03:18:25;;;;;;;;;0.00;0.00;;;;;13.04;100.00;102954.69;5079268;28;45255;-79
2024/02/18 03:20:51;;;;;;;;;0.00;0.00;;;;;13.04;100.00;102951.19;5078383;27;64580;-79
2024/02/18 03:23:16;;;;;;;;;0.00;0.00;;;;;13.03;100.00;102950.34;5078831;28;45333;-79
2024/02/18 03:25:43;;;;;;;;;0.00;0.00;;;;;13.03;100.00;102949.47;5078008;27;71159;-79
2024/02/18 03:28:09;;;;;;;;;0.00;0.00;;;;;13.01;100.00;102946.84;5078743;27;45492;-79
2024/02/18 03:30:34;;;;;;;;;0.00;0.00;;;;;13.02;100.00;102939.88;5078809;28;45346;-80
2024/02/18 03:33:00;;;;;;;;;0.00;0.00;;;;;13.01;100.00;102932.94;5078187;27;67914;-80
2024/02/18 03:35:27;;;;;;;;;0.00;0.00;;;;;12.97;100.00;102930.31;5077830;28;46336;-80
2024/02/18 03:37:57;;;;;;;;;0.00;0.00;;;;;12.98;100.00;102920.72;5079286;27;45329;-80
2024/02/18 03:40:23;;;;;;;;;0.00;0.00;;;;;12.95;100.00;102924.22;5079329;28;45393;-80
2024/02/18 03:42:49;;;;;;;;;0.00;0.00;;;;;12.92;100.00;102920.75;5079101;28;45243;-80
2024/02/18 03:45:15;;;;;;;;;0.00;0.00;;;;;12.95;100.00;102921.63;5078695;27;45400;-80
2024/02/18 03:47:41;;;;;;;;;0.00;0.00;;;;;12.97;100.00;102917.25;5078907;28;45361;-79
2024/02/18 03:50:07;;;;;;;;;0.00;0.00;;;;;12.97;100.00;102906.78;5078810;28;45379;-80
2024/02/18 03:52:32;;;;;;;;;0.00;0.00;;;;;12.94;100.00;102903.31;5078800;27;45293;-79
2024/02/18 03:54:57;;;;;;;;;0.00;0.00;;;;;12.94;100.00;102904.19;5077636;27;75451;-79
2024/02/18 03:57:23;;;;;;;;;0.00;0.00;;;;;12.94;100.00;102892.84;5078479;27;45344;-79
2024/02/18 03:59:48;;;;;;;;;0.00;0.00;;;;;12.96;100.00;102896.34;5077404;27;69423;-79
2024/02/18 04:02:13;;;;;;;;;0.00;0.00;;;;;12.93;100.00;102886.78;5077292;28;45360;-79
2024/02/18 04:04:39;;;;;;;;;0.00;0.00;;;;;12.93;100.00;102892.00;5077516;27;75372;-79
2024/02/18 04:07:04;;;;;;;;;0.00;0.00;;;;;12.91;100.00;102883.28;5077437;28;71842;-79
2024/02/18 04:09:29;;;;;;;;;0.00;0.00;;;;;12.89;100.00;102887.66;5077015;28;66863;-79
2024/02/18 04:11:55;;;;;;;;;0.67;0.67;;;;;12.92;100.00;102878.94;5077371;28;70276;-79
2024/02/18 04:14:20;;;;;;;;;0.00;0.00;;;;;12.91;100.00;102871.97;5077579;28;47116;-79
2024/02/18 04:16:46;;;;;;;;;0.00;0.00;;;;;12.92;100.00;102873.69;5077267;28;73146;-79
2024/02/18 04:19:11;;;;;;;;;0.00;0.00;;;;;12.91;100.00;102874.59;5077290;28;69824;-79
2024/02/18 04:21:36;;;;;;;;;0.00;0.00;;;;;12.90;100.00;102875.47;5076965;28;45318;-79
2024/02/18 04:24:03;;;;;;;;;0.00;0.00;;;;;12.93;100.00;102876.31;5077687;27;47351;-79
2024/02/18 04:26:28;;;;;;;;;0.00;0.00;;;;;12.95;100.00;102868.47;5077745;27;45349;-79
2024/02/18 04:28:53;;;;;;;;;0.00;0.00;;;;;12.95;100.00;102860.63;5078382;27;45443;-78
2024/02/18 04:31:19;;;;;;;;;0.00;0.00;;;;;12.96;100.00;102860.63;5077360;27;70356;-79
2024/02/18 04:33:44;;;;;;;;;0.00;0.00;;;;;12.97;100.00;102861.50;5077755;27;46334;-79
2024/02/18 04:36:11;;;;;;;;;0.00;0.00;;;;;12.94;100.00;102854.50;5075801;28;72339;-79
2024/02/18 04:38:36;;;;;;;;;0.00;0.00;;;;;12.97;100.00;102851.88;5077935;27;45493;-79
2024/02/18 04:41:02;;;;;;;;;0.00;0.00;;;;;12.94;100.00;102845.81;5076662;27;70241;-79
2024/02/18 04:43:27;;;;;;;;;0.00;0.00;;;;;12.90;100.00;102844.94;5077660;28;46424;-79
2024/02/18 04:45:52;;;;;;;;;0.00;0.00;;;;;12.89;100.00;102848.47;5076707;28;72122;-79
2024/02/18 04:48:18;;;;;;;;;0.00;0.00;;;;;12.91;100.00;102853.69;5078005;27;45362;-79
2024/02/18 04:50:43;;;;;;;;;0.00;0.00;;;;;12.89;100.00;102844.94;5076597;27;68795;-79
2024/02/18 04:53:08;;;;;;;;;0.00;0.00;;;;;12.88;100.00;102845.84;5077001;27;58118;-79
2024/02/18 04:55:34;;;;;;;;;0.00;0.00;;;;;12.86;100.00;102839.75;5076894;28;47902;-79
2024/02/18 04:57:59;;;;;;;;;0.00;0.00;;;;;12.86;100.00;102839.75;5076480;28;67922;-79
2024/02/18 05:00:24;;;;;;;;;0.00;0.00;;;;;12.83;100.00;102834.53;5077651;27;45308;-79
2024/02/18 05:02:50;;;;;;;;;0.00;0.00;;;;;12.83;100.00;102834.53;5076816;28;60256;-79
2024/02/18 05:05:15;;;;;;;;;0.00;0.00;;;;;12.83;100.00;102837.16;5077458;28;45336;-79
2024/02/18 05:07:40;;;;;;;;;0.00;0.00;;;;;12.84;100.00;102838.91;5077617;27;45358;-79
2024/02/18 05:10:07;;;;;;;;;0.00;0.00;;;;;12.85;100.00;102840.63;5076325;27;69411;-79
2024/02/18 05:12:32;;;;;;;;;0.00;0.00;;;;;12.86;100.00;102838.00;5077157;27;45460;-79
2024/02/18 05:14:58;;;;;;;;;0.00;0.00;;;;;12.88;100.00;102838.88;5076462;28;72074;-79
2024/02/18 05:17:23;;;;;;;;;0.00;0.00;;;;;12.89;100.00;102827.56;5077781;28;45299;-79
2024/02/18 05:19:49;;;;;;;;;0.00;0.00;;;;;12.88;100.00;102843.22;5076010;28;61907;-79
2024/02/18 05:22:15;;;;;;;;;0.00;0.00;;;;;12.87;100.00;102839.75;5077348;27;45364;-79
2024/02/18 05:24:41;;;;;;;;;0.00;0.00;;;;;12.87;100.00;102834.53;5075496;27;74248;-78
2024/02/18 05:27:07;;;;;;;;;0.00;0.00;;;;;12.85;100.00;102825.84;5077360;27;45334;-79
2024/02/18 05:29:32;;;;;;;;;0.00;0.00;;;;;12.88;100.00;102833.63;5076346;27;70272;-78
2024/02/18 05:31:57;;;;;;;;;0.00;0.00;;;;;12.89;100.00;102827.56;5075907;27;74596;-78
2024/02/18 05:34:23;;;;;;;;;0.00;0.00;;;;;12.91;100.00;102824.94;5077207;27;46172;-79
2024/02/18 05:36:48;;;;;;;;;0.00;0.00;;;;;12.88;100.00;102828.41;5076395;27;68949;-78
2024/02/18 05:39:13;;;;;;;;;0.00;0.00;;;;;12.87;100.00;102831.03;5076984;27;46697;-79
2024/02/18 05:41:40;;;;;;;;;0.00;0.00;;;;;12.85;100.00;102825.84;5077045;27;45341;-79
2024/02/18 05:44:06;;;;;;;;;0.00;0.00;;;;;12.87;100.00;102824.06;5075779;28;45330;-79
2024/02/18 05:46:31;;;;;;;;;0.00;0.00;;;;;12.87;100.00;102824.06;5077152;27;45452;-79
2024/02/18 05:48:56;;;;;;;;;0.00;0.00;;;;;12.87;100.00;102817.97;5075832;28;45709;-79
2024/02/18 05:51:22;;;;;;;;;0.00;0.00;;;;;12.90;100.00;102831.88;5075459;27;75409;-79
2024/02/18 05:53:47;;;;;;;;;0.00;0.00;;;;;12.90;100.00;102829.25;5075951;27;59174;-79
2024/02/18 05:56:12;;;;;;;;;0.00;0.00;;;;;12.91;100.00;102832.78;5075675;28;45362;-79
2024/02/18 05:58:38;;;;;;;;;0.00;0.00;;;;;12.92;100.00;102824.03;5076788;28;45379;-78
2024/02/18 06:01:03;;;;;;;;;0.00;0.00;;;;;12.92;100.00;102821.41;5076865;27;45413;-79
2024/02/18 06:03:29;;;;;;;;;0.00;0.00;;;;;12.93;100.00;102825.78;5076593;28;45443;-79
2024/02/18 06:05:54;;;;;;;;;0.00;0.00;;;;;12.94;100.00;102830.13;5075923;28;68659;-78
2024/02/18 06:08:20;;;;;;;;;0.00;0.00;;;;;12.97;100.00;102825.75;5076636;28;45466;-79
2024/02/18 06:10:45;;;;;;;;;0.00;0.00;;;;;12.99;100.00;102820.50;5076022;27;64429;-78
2024/02/18 06:13:10;;;;;;;;;0.00;0.00;;;;;13.01;100.00;102820.50;5076336;28;45408;-79
2024/02/18 06:15:36;;;;;;;;;0.00;0.00;;;;;13.01;100.00;102821.38;5076529;28;45418;-78
2024/02/18 06:18:01;;;;;;;;;0.00;0.00;;;;;13.02;100.00;102801.31;5075482;28;45553;-79
2024/02/18 06:20:30;;;;;;;;;0.00;0.00;;;;;13.04;100.00;102799.56;5075779;28;66424;-78
2024/02/18 06:22:55;;;;;;;;;0.00;0.00;;;;;13.03;100.00;102788.25;5075688;27;45379;-79
2024/02/18 06:25:21;;;;;;;;;0.00;0.00;;;;;13.04;100.00;102761.22;5076371;27;45319;-78
2024/02/18 06:27:47;;;;;;;;;0.00;0.00;;;;;13.04;100.00;102762.97;5076223;28;47669;-79
2024/02/18 06:30:13;;;;;;;;;0.00;0.00;;;;;13.02;100.00;102772.56;5076222;27;45530;-78
2024/02/18 06:32:38;;;;;;;;;0.00;0.00;;;;;13.00;100.00;102763.88;5081912;28;45369;-79
2024/02/18 06:35:04;;;;;;;;;0.00;0.00;;;;;12.95;100.00;102756.94;5083046;27;45379;-78
2024/02/18 06:37:29;;;;;;;;;0.00;0.00;;;;;12.90;100.00;102758.69;5082563;28;45465;-78
2024/02/18 06:39:54;;;;;;;;;0.00;0.00;;;;;12.87;100.00;102770.91;5081876;27;74468;-78
2024/02/18 06:42:20;;;;;;;;;0.00;0.00;;;;;12.81;100.00;102769.19;5080477;28;71202;-78
2024/02/18 06:44:45;;;;;;;;;0.00;0.00;;;;;12.82;100.00;102764.88;5082889;27;45300;-78
2024/02/18 06:47:10;;;;;;;;;2.00;2.00;;;;;12.81;100.00;102766.59;5080778;28;69114;-80
2024/02/18 06:49:36;;;;;;;;;0.00;0.00;;;;;12.86;100.00;102762.22;5081404;27;75262;-78
2024/02/18 06:52:01;;;;;;;;;0.00;0.00;;;;;12.90;100.00;102771.75;5080353;28;62144;-78
2024/02/18 06:54:26;;;;;;;;;0.00;0.00;;;;;12.92;100.00;102771.75;5081749;28;69027;-78
2024/02/18 06:56:52;;;;;;;;;1.00;1.00;;;;;12.92;100.00;102766.53;5082918;27;45442;-78
2024/02/18 06:59:18;;;;;;;;;0.00;0.00;;;;;12.91;100.00;102760.44;5082815;28;45404;-78
2024/02/18 07:01:44;;;;;;;;;0.00;0.00;;;;;12.90;100.00;102752.59;5083044;28;45471;-79
2024/02/18 07:04:09;;;;;;;;;0.00;0.00;;;;;12.89;100.00;102737.78;5083003;27;45379;-79
2024/02/18 07:06:34;;;;;;;;;0.00;0.00;;;;;12.91;100.00;102726.47;5082653;28;45397;-79
2024/02/18 07:09:00;;;;;;;;;0.00;0.00;;;;;12.90;100.00;102716.88;5081688;28;75656;-79
2024/02/18 07:11:26;;;;;;;;;0.00;0.00;;;;;12.91;100.00;102715.16;5081837;28;66124;-79
2024/02/18 07:13:52;;;;;;;;;1.00;1.00;;;;;12.93;100.00;102714.25;5082912;27;45522;-79
2024/02/18 07:16:18;;;;;;;;;0.00;0.00;;;;;12.97;100.00;102717.72;5082678;28;45316;-79
2024/02/18 07:18:43;;;;;;;;;0.00;0.00;;;;;12.98;100.00;102711.59;5082397;28;46476;-79
2024/02/18 07:21:08;;;;;;;;;0.00;0.00;;;;;13.00;100.00;102716.81;5081277;28;74273;-78
2024/02/18 07:23:34;;;;;;;;;0.00;0.00;;;;;12.95;100.00;102706.41;5080191;27;62652;-80
2024/02/18 07:25:59;;;;;;;;;0.00;0.00;;;;;13.03;100.00;102693.28;5081737;27;70620;-78
2024/02/18 07:28:25;;;;;;;;;1.50;1.50;;;;;13.04;100.00;102689.75;5081157;28;75285;-79
2024/02/18 07:30:50;;;;;;;;;0.00;0.00;;;;;13.05;100.00;102700.22;5082344;28;45496;-81
2024/02/18 07:33:15;;;;;;;;;0.00;0.00;;;;;13.03;100.00;102701.97;5082490;27;45394;-80
2024/02/18 07:35:41;;;;;;;;;0.00;0.00;;;;;13.05;100.00;102700.22;5082081;27;45568;-79
2024/02/18 07:38:06;;;;;;;;;0.00;0.00;;;;;13.06;100.00;102709.81;5081815;27;59628;-80
2024/02/18 07:40:31;;;;;;;;;0.00;0.00;;;;;13.09;100.00;102701.06;5081174;27;73910;-79
2024/02/18 07:42:57;;;;;;;;;0.00;0.00;;;;;13.13;100.00;102694.91;5078550;28;52714;-80
2024/02/18 07:45:22;;;;;;;;;0.00;0.00;;;;;13.14;100.00;102696.66;5079061;28;45271;-80
2024/02/18 07:47:47;;;;;;;;;0.00;0.00;;;;;13.15;100.00;102708.88;5077995;27;75715;-81
2024/02/18 07:50:13;;;;;;;;;0.00;0.00;;;;;13.15;100.00;102709.72;5077450;27;73056;-80
2024/02/18 07:52:38;;;;;;;;;0.00;0.00;;;;;13.18;100.00;102712.28;5078527;28;45522;-80
2024/02/18 07:55:04;;;;;;;;;1.00;1.00;;;;;13.19;100.00;102718.41;5077947;28;68816;-79
2024/02/18 07:57:29;;;;;;;;;0.00;0.00;;;;;13.20;100.00;102709.66;5078461;28;46288;-79
2024/02/18 07:59:55;;;;;;;;;0.00;0.00;;;;;13.21;100.00;102718.41;5078570;28;45275;-82
2024/02/18 08:02:21;;;;;;;;;0.00;0.00;;;;;13.14;100.00;102722.81;5078081;28;59355;-80
2024/02/18 08:04:46;;;;;;;;;0.00;0.00;;;;;13.15;100.00;102727.16;5078170;27;45379;-79
2024/02/18 08:07:12;;;;;;;;;1.00;1.00;;;;;13.22;100.00;102727.97;5077377;28;75240;-80
2024/02/18 08:09:37;;;;;;;;;0.00;0.00;;;;;13.24;100.00;102719.25;5076851;28;63052;-81
2024/02/18 08:12:02;;;;;;;;;0.00;0.00;;;;;13.27;100.00;102713.97;5075502;28;67521;-79
2024/02/18 08:14:28;;;;;;;;;0.00;0.00;;;;;13.32;100.00;102712.22;5077161;27;45616;-78
2024/02/18 08:16:55;;;;;;;;;0.00;0.00;;;;;13.34;100.00;102691.28;5076949;27;68057;-80
2024/02/18 08:19:20;;;;;;;;;0.00;0.00;;;;;13.36;100.00;102698.22;5077591;27;45389;-79
2024/02/18 08:21:45;;;;;;;;;0.00;0.00;;;;;13.40;100.00;102691.22;5078229;28;45318;-80
2024/02/18 08:24:11;;;;;;;;;13.00;13.00;;;;;13.42;100.00;102691.22;5077164;27;69564;-80
2024/02/18 08:26:36;;;;;;;;;0.00;0.00;;;;;13.46;100.00;102696.38;5077386;28;46498;-79
2024/02/18 08:29:02;;;;;;;;;0.00;0.00;;;;;13.48;100.00;102689.41;5077174;27;72793;-80
2024/02/18 08:31:27;;;;;;;;;0.00;0.00;;;;;13.51;100.00;102689.38;5077592;27;56697;-79
2024/02/18 08:33:52;;;;;;;;;0.00;0.00;;;;;13.52;100.00;102685.00;5075595;28;68322;-79
2024/02/18 08:36:17;;;;;;;;;0.00;0.00;;;;;13.58;100.00;102692.81;5075708;28;45336;-79
2024/02/18 08:38:43;;;;;;;;;0.00;0.00;;;;;13.56;100.00;102699.81;5076933;27;73891;-79
2024/02/18 08:41:09;;;;;;;;;0.00;0.00;;;;;13.54;100.00;102704.19;5078559;27;45313;-81
2024/02/18 08:43:39;;;;;;;;;0.00;0.00;;;;;13.59;100.00;102710.22;5078273;27;45314;-80
2024/02/18 08:46:04;;;;;;;;;0.00;0.00;;;;;13.54;100.00;102710.28;5077101;27;45456;-80
2024/02/18 08:48:30;;;;;;;;;0.00;0.00;;;;;13.52;100.00;102701.59;5076735;27;72967;-80
2024/02/18 08:50:55;;;;;;;;;3.00;3.00;;;;;13.48;100.00;102688.53;5076199;27;66320;-79
2024/02/18 08:53:21;;;;;;;;;0.00;0.00;;;;;13.39;100.00;102699.97;5077830;27;45469;-81
2024/02/18 08:55:47;;;;;;;;;0.00;0.00;;;;;13.26;100.00;102708.75;5076583;27;46319;-80
2024/02/18 08:58:13;;;;;;;;;0.00;0.00;;;;;13.16;100.00;102713.19;5075833;27;73244;-79
2024/02/18 09:00:38;;;;;;;;;0.00;0.00;;;;;13.06;100.00;102737.69;5077503;27;45341;-79
2024/02/18 09:03:03;;;;;;;;;0.00;0.00;;;;;12.96;100.00;102750.84;5076200;27;67144;-79
2024/02/18 09:05:29;;;;;;;;;0.00;0.00;;;;;12.87;100.00;102729.09;5077151;27;46429;-80
2024/02/18 09:07:54;;;;;;;;;0.00;0.00;;;;;12.71;100.00;102742.25;5077446;27;45339;-81
2024/02/18 09:10:19;;;;;;;;;0.00;0.00;;;;;12.59;100.00;102734.47;5076050;27;62597;-82
2024/02/18 09:12:45;;;;;;;;;0.00;0.00;;;;;12.40;100.00;102725.88;5091259;27;71172;-81
2024/02/18 09:15:11;;;;;;;;;0.00;0.00;;;;;12.28;100.00;102720.75;5077211;27;45482;-81
2024/02/18 09:17:36;;;;;;;;;0.00;0.00;;;;;12.24;100.00;102709.44;5076823;27;45418;-80
2024/02/18 09:20:03;;;;;;;;;3.00;3.00;;;;;12.24;100.00;102701.59;5075330;28;66994;-78
2024/02/18 09:22:28;;;;;;;;;0.00;0.00;;;;;12.23;100.00;102712.03;5076754;28;45454;-80
2024/02/18 09:24:55;;;;;;;;;0.00;0.00;;;;;12.26;100.00;102704.19;5075504;27;73214;-80
2024/02/18 09:27:20;;;;;;;;;0.00;0.00;;;;;12.24;100.00;102705.94;5078683;27;45495;-81
2024/02/18 09:29:45;;;;;;;;;0.00;0.00;;;;;12.18;100.00;102707.72;5076104;28;61775;-81
2024/02/18 09:32:11;;;;;;;;;0.00;0.00;;;;;12.16;100.00;102700.75;5089355;27;70283;-80
2024/02/18 09:34:37;;;;;;;;;0.00;0.00;;;;;12.17;100.00;102699.88;5076199;27;45379;-81
2024/02/18 09:37:03;;;;;;;;;0.00;0.00;;;;;12.14;100.00;102692.06;5118422;27;45445;-82
2024/02/18 09:39:28;;;;;;;;;0.00;0.00;;;;;12.09;100.00;102699.03;5096078;27;45380;-84
2024/02/18 09:41:58;;;;;;;;;0.00;0.00;;;;;12.24;100.00;102691.16;5096260;27;45474;-84
2024/02/18 09:44:26;;;;;;;;;0.00;0.00;;;;;12.23;100.00;102701.59;5095987;27;45391;-84
2024/02/18 09:46:52;;;;;;;;;0.00;0.00;;;;;12.31;100.00;102689.38;5096707;27;45491;-83
2024/02/18 09:49:18;;;;;;;;;0.00;0.00;;;;;12.16;100.00;102699.00;5093974;27;69618;-83
2024/02/18 09:51:43;;;;;;;;;0.00;0.00;;;;;12.37;100.00;102681.53;5075287;28;45564;-82
2024/02/18 09:54:11;;;;;;;;;0.00;0.00;;;;;12.41;100.00;102672.78;5109302;27;46261;-84
2024/02/18 09:56:36;;;;;;;;;0.00;0.00;;;;;12.47;100.00;102664.91;5076673;28;45263;-82
2024/02/18 09:59:02;;;;;;;;;0.00;0.00;;;;;12.92;100.00;102655.00;5074396;28;67346;-80
2024/02/18 10:01:27;;;;;;;;;1.00;1.00;;;;;12.63;100.00;102662.19;5074674;28;66885;-81
2024/02/18 10:03:53;;;;;;;;;0.00;0.00;;;;;12.58;100.00;102659.63;5108455;27;75623;-83
2024/02/18 10:06:18;;;;;;;;;1.00;0.00;;;;;12.51;100.00;102655.31;5108101;27;68658;-82
2024/02/18 10:08:51;;;;;;;;;0.00;0.00;;;;;12.49;100.00;102650.09;5058744;28;45347;-83
2024/02/18 10:11:20;;;;;;;;;0.00;0.00;;;;;12.45;100.00;102652.75;5076563;28;45537;-83
2024/02/18 10:13:46;;;;;;;;;0.00;0.00;;;;;12.52;100.00;102644.00;5076693;28;46258;-83
2024/02/18 10:16:12;;;;;;;;;0.00;0.00;;;;;12.53;100.00;102638.72;5082246;27;45430;-82
2024/02/18 10:18:37;;;;;;;;;0.00;0.00;;;;;12.54;100.00;102643.09;5078620;28;67223;-83
2024/02/18 10:21:02;;;;;;;;;0.00;0.00;;;;;12.56;100.00;102643.09;5110014;27;45352;-83
2024/02/18 10:23:28;;;;;;;;;0.00;0.00;;;;;12.66;100.00;102642.13;5074727;27;47595;-83
2024/02/18 10:25:53;;;;;;;;;0.00;0.00;;;;;12.77;100.00;102639.44;5076577;27;45440;-83
2024/02/18 10:28:19;;;;;;;;;0.00;0.00;;;;;12.86;100.00;102636.75;5074448;28;68115;-83
2024/02/18 10:30:44;;;;;;;;;0.00;0.00;;;;;12.90;100.00;102637.59;5076202;28;45255;-83
2024/02/18 10:33:09;;;;;;;;;0.00;0.00;;;;;12.92;100.00;102620.16;5074687;28;65386;-83
2024/02/18 10:35:35;;;;;;;;;0.00;0.00;;;;;12.95;100.00;102623.63;5074509;28;73531;-83
2024/02/18 10:38:02;;;;;;;;;0.00;0.00;;;;;12.95;100.00;102614.91;5057526;28;68408;-83
2024/02/18 10:40:37;;;;;;;;;0.00;0.00;;;;;13.06;100.00;102614.81;5058347;28;45471;-83
2024/02/18 10:43:04;;;;;;;;;0.00;0.00;;;;;13.00;100.00;102631.44;5076434;27;46317;-83
2024/02/18 10:45:30;;;;;;;;;0.00;0.00;;;;;13.04;100.00;102621.78;5075844;27;45370;-83
2024/02/18 10:48:00;;;;;;;;;0.00;0.00;;;;;12.93;100.00;102628.00;5074517;28;64279;-84
2024/02/18 10:50:27;;;;;;;;;0.00;0.00;;;;;12.78;100.00;102635.97;5075026;28;45411;-83
2024/02/18 10:53:15;;;;;;;;;0.00;0.00;;;;;12.83;100.00;102617.63;5075764;28;46117;-83
2024/02/18 10:56:02;;;;;;;;;0.00;0.00;;;;;12.87;100.00;102620.22;5074929;28;45396;-84
2024/02/18 10:58:36;;;;;;;;;0.00;0.00;;;;;12.88;100.00;102634.13;5076036;28;45315;-84
2024/02/18 11:01:03;;;;;;;;;0.00;0.00;;;;;12.92;100.00;102633.22;5076487;28;45412;-85
2024/02/18 11:03:42;;;;;;;;;0.00;0.00;;;;;12.94;100.00;102624.47;5058092;28;47500;-85
2024/02/18 11:06:08;;;;;;;;;0.00;0.00;;;;;12.89;100.00;102615.84;5075934;28;45422;-85
2024/02/18 11:08:34;;;;;;;;;0.00;0.00;;;;;12.87;100.00;102622.81;5074806;27;45353;-84
2024/02/18 11:11:02;;;;;;;;;0.00;0.00;;;;;12.90;100.00;102614.06;5074874;28;45437;-86